Startpagina
METAR-TAF:

METAR-TAF

Vliegvelden :

Aéroport de Luxembourg

Luxemburg, Luxemburg

breedte: 49-37N, lengte: 006-13E, hoogte: 376 m

Actueel weer

Dit bericht is 10 minuten geleden gemaakt, om 19:20 UTC
Wind 12 kt uit het oostnoordoosten
Temperatuur 1°C
Vochtigheid 93%
Druk 1008 hPa
Zicht: 6000 m
lichte sneeuw

METAR: ELLX 191920Z AUTO 07012KT 6000 -SN FEW009/// BKN011/// BKN013/// 01/M00 Q1008 TEMPO BKN012

Tijdstip: 20:30 (19:30 UTC)

Verwachting

Dit bericht is 2 uur en het 30 minuten geleden gemaakt, om 17:00 UTC
Verwachting geldig van 19 om 18 UTC tot 20 om 24 UTC
Wind 13 kt uit het oostnoordoosten
Zicht: 8000 m
Verspreide wolken op 1000 ft
Gebroken wolken op 2000 ft
Tijdelijke
van 19 om 18 UTC tot 19 om 21 UTC
Zicht: 3500 m
Verspreide wolken op 500 ft
Gebroken wolken op 800 ft
lichte sneeuw

TAF: ELLX 191700Z 1918/2024 06013KT 8000 SCT010 BKN020 TEMPO 1918/1921 3500 -SN SCT005 BKN008

Waarnemingen en weersverwachtingen van meer dan 4000 vliegvelden (METAR en TAF).

De beschikbare stations zijn de gele en rode punten op de kaart.

Ga met uw muis naar het station om de naam te zien.

Klik dan om waarnemingen en weersverwachtingen te zien.

kaart wijzigen: klik op de groene knoppen met een zwart kruis om in te zoomen, op de groene knop met een streepje om uit te zoomen of op de groene pijlen voor aangrenzende kaarten.


METAR-TAF: